Airfield :
LOGIN :

Register | Disclaimer

   EN    FR    IT 

 










Legend :    VFR   Marginal VFR   IFR   Intensive IFR   Very Intensive IFR
Visi :
Ceiling :
>= 8 km
>= 3000ft
5 to 8 km
1000 to 3000 ft
1500m to 5 km
500 to 1000 ft
800 to 1500m
200 to 500 ft
< 800m
< 200 ft
Symbols :   Thunderstorms  Fog  Heavy snow  Heavy precipitations  Wind > 20 kt
SIGMETs :     Misc.  Thunderstorms  Icing  Turbulence  Mountain Waves  Volcanic Ashes






- Airport Elevation : 32 ft
- IATA code : LKZ


EGUL - RAF Lakenheath

CURRENT METAR :
  • 221456Z 24013KT 9999 BKN032 BKN040 14/13 A2975 RMK AO2A SLP078 T01360133 53006 $

EXPIRED METARs :
  • 221356Z AUTO 24016KT 9999 SCT040 14/14 A2974 RMK AO2 PK WND 24027/31 SLP074 T01420139 $
  • 221256Z AUTO 24018G23KT 9999 CLR 14/14 A2973 RMK AO2 SLP071 T01440144 $

TAF TAF EGUL
Valid from the 22 at 12:00 until the 23 at 18:00 UTC


221200Z 2212/2318 23012KT 9999 SCT030 QNH2972INS
BECMG 2223/2224 25005KT 8000 BR BKN025 QNH2974INS
BECMG 2302/2303 25005KT 6000 BR BKN015 QNH2977INS
BECMG 2307/2308 25010KT 9999 NSW BKN012 QNH2979INS
BECMG 2312/2313 23015G20KT 9000 -SHRA BKN020 BKN060 QNH2977INS TX15/2214Z TN10/2303Z



MET'MAP, your aeronautical weather chart ! - Copyright ORBIFLY December 2007 - Disclaimer

ORBIFLY MET'MAP TEAM :

Programming & Development : Alexandra Zaïnal
Concept & original design : Baudouin d'Aumeries
Assistance for programming : Marc-Olivier Méhu
Technical & hardware support : Manuel Goepfert

Contact : metmap@orbifly.com




SOURCES & CREDITS :

   NOAA